Indianapolis, Indiana
Traffic Map
Current Weather Conditions
Indianapolis, Indiana
Scattered Clouds
Scattered Clouds
74°
Feels Like: 74°
Wind Chill: 74° Ceiling: Unl
Heat Index: 74° Visibility: 10mi
Dew Point: 68° Wind: 3mph
Humidity: 82% Direction: 100° (E)
Pressure: 30.16in Gusts: 0mph
Raw Report DataKIND 301054Z 10003KT 10SM SCT250 23/20 A3016 RMK AO2 SLP204 T02330200
Traffic Incident Summary
Active as of:
Severity:
Category:
InformationThere was an issue retrieving the traffic information for this location. Please try a different location or try again shortly.
Advertisements
Track Severe Weather on mobile